sensor_id;sensor_type;location;lat;lon;timestamp;P1;durP1;ratioP1;P2;durP2;ratioP2
58898;SDS011;44680;48.342;7.856;2022-12-10T00:00:20;42.38;;;24.17;;
58898;SDS011;44680;48.342;7.856;2022-12-10T00:02:45;42.45;;;22.27;;
58898;SDS011;44680;48.342;7.856;2022-12-10T00:05:10;48.65;;;23.85;;
58898;SDS011;44680;48.342;7.856;2022-12-10T00:07:36;45.45;;;23.85;;
58898;SDS011;44680;48.342;7.856;2022-12-10T00:10:01;47.00;;;25.30;;
58898;SDS011;44680;48.342;7.856;2022-12-10T00:12:26;41.22;;;23.23;;
58898;SDS011;44680;48.342;7.856;2022-12-10T00:14:51;64.55;;;28.95;;
58898;SDS011;44680;48.342;7.856;2022-12-10T00:17:17;54.35;;;26.52;;
58898;SDS011;44680;48.342;7.856;2022-12-10T00:19:42;67.80;;;30.33;;
58898;SDS011;44680;48.342;7.856;2022-12-10T00:22:07;105.47;;;35.65;;
58898;SDS011;44680;48.342;7.856;2022-12-10T00:24:33;59.88;;;30.40;;
58898;SDS011;44680;48.342;7.856;2022-12-10T00:26:58;50.60;;;27.65;;
58898;SDS011;44680;48.342;7.856;2022-12-10T00:29:24;50.15;;;27.60;;
58898;SDS011;44680;48.342;7.856;2022-12-10T00:31:49;49.80;;;26.50;;
58898;SDS011;44680;48.342;7.856;2022-12-10T00:34:14;45.67;;;26.17;;
58898;SDS011;44680;48.342;7.856;2022-12-10T00:36:42;48.45;;;25.88;;
58898;SDS011;44680;48.342;7.856;2022-12-10T00:39:10;48.72;;;26.38;;
58898;SDS011;44680;48.342;7.856;2022-12-10T00:41:36;48.13;;;24.83;;
58898;SDS011;44680;48.342;7.856;2022-12-10T00:44:01;44.53;;;23.42;;
58898;SDS011;44680;48.342;7.856;2022-12-10T00:46:27;42.47;;;23.92;;
58898;SDS011;44680;48.342;7.856;2022-12-10T00:48:53;40.63;;;22.58;;
58898;SDS011;44680;48.342;7.856;2022-12-10T00:51:19;43.25;;;22.05;;
58898;SDS011;44680;48.342;7.856;2022-12-10T00:53:46;40.60;;;22.58;;
58898;SDS011;44680;48.342;7.856;2022-12-10T00:56:13;40.55;;;23.35;;
58898;SDS011;44680;48.342;7.856;2022-12-10T00:58:39;40.70;;;21.30;;
58898;SDS011;44680;48.342;7.856;2022-12-10T01:03:51;47.10;;;25.98;;
58898;SDS011;44680;48.342;7.856;2022-12-10T01:06:25;54.50;;;27.92;;
58898;SDS011;44680;48.342;7.856;2022-12-10T01:08:55;40.42;;;22.50;;
58898;SDS011;44680;48.342;7.856;2022-12-10T01:11:21;40.92;;;22.15;;
58898;SDS011;44680;48.342;7.856;2022-12-10T01:13:49;41.03;;;22.10;;
58898;SDS011;44680;48.342;7.856;2022-12-10T01:16:17;41.65;;;23.20;;
58898;SDS011;44680;48.342;7.856;2022-12-10T01:18:43;45.67;;;24.25;;
58898;SDS011;44680;48.342;7.856;2022-12-10T01:21:10;43.90;;;23.55;;
58898;SDS011;44680;48.342;7.856;2022-12-10T01:23:39;44.08;;;23.45;;
58898;SDS011;44680;48.342;7.856;2022-12-10T01:26:06;39.78;;;21.90;;
58898;SDS011;44680;48.342;7.856;2022-12-10T01:28:32;41.80;;;22.73;;
58898;SDS011;44680;48.342;7.856;2022-12-10T01:31:00;46.70;;;22.88;;
58898;SDS011;44680;48.342;7.856;2022-12-10T01:33:27;39.65;;;21.13;;
58898;SDS011;44680;48.342;7.856;2022-12-10T01:35:53;39.70;;;22.15;;
58898;SDS011;44680;48.342;7.856;2022-12-10T01:38:18;41.22;;;23.48;;
58898;SDS011;44680;48.342;7.856;2022-12-10T01:40:43;43.00;;;23.88;;
58898;SDS011;44680;48.342;7.856;2022-12-10T01:43:12;39.90;;;21.25;;
58898;SDS011;44680;48.342;7.856;2022-12-10T01:45:39;42.15;;;22.33;;
58898;SDS011;44680;48.342;7.856;2022-12-10T01:48:04;40.38;;;22.05;;
58898;SDS011;44680;48.342;7.856;2022-12-10T01:50:29;41.50;;;22.83;;
58898;SDS011;44680;48.342;7.856;2022-12-10T01:52:55;41.03;;;22.48;;
58898;SDS011;44680;48.342;7.856;2022-12-10T01:55:40;46.28;;;23.55;;
58898;SDS011;44680;48.342;7.856;2022-12-10T01:58:10;45.25;;;23.55;;
58898;SDS011;44680;48.342;7.856;2022-12-10T02:00:37;41.45;;;23.08;;
58898;SDS011;44680;48.342;7.856;2022-12-10T02:03:13;44.78;;;22.98;;
58898;SDS011;44680;48.342;7.856;2022-12-10T02:05:44;43.22;;;23.00;;
58898;SDS011;44680;48.342;7.856;2022-12-10T02:08:32;38.55;;;21.88;;
58898;SDS011;44680;48.342;7.856;2022-12-10T02:11:09;43.03;;;22.75;;
58898;SDS011;44680;48.342;7.856;2022-12-10T02:16:06;44.22;;;22.75;;
58898;SDS011;44680;48.342;7.856;2022-12-10T02:18:38;41.90;;;22.50;;
58898;SDS011;44680;48.342;7.856;2022-12-10T02:21:07;39.45;;;22.70;;
58898;SDS011;44680;48.342;7.856;2022-12-10T02:23:38;41.88;;;22.83;;
58898;SDS011;44680;48.342;7.856;2022-12-10T02:31:14;45.58;;;23.35;;
58898;SDS011;44680;48.342;7.856;2022-12-10T02:33:43;45.42;;;22.95;;
58898;SDS011;44680;48.342;7.856;2022-12-10T02:36:12;41.70;;;22.60;;
58898;SDS011;44680;48.342;7.856;2022-12-10T02:38:38;40.38;;;21.88;;
58898;SDS011;44680;48.342;7.856;2022-12-10T02:41:06;42.20;;;22.45;;
58898;SDS011;44680;48.342;7.856;2022-12-10T02:43:34;46.17;;;23.15;;
58898;SDS011;44680;48.342;7.856;2022-12-10T02:46:00;40.00;;;21.48;;
58898;SDS011;44680;48.342;7.856;2022-12-10T02:48:27;40.42;;;22.08;;
58898;SDS011;44680;48.342;7.856;2022-12-10T02:50:53;39.72;;;21.88;;
58898;SDS011;44680;48.342;7.856;2022-12-10T02:53:18;41.88;;;22.27;;
58898;SDS011;44680;48.342;7.856;2022-12-10T03:04:13;41.35;;;23.02;;
58898;SDS011;44680;48.342;7.856;2022-12-10T03:06:45;37.72;;;21.98;;
58898;SDS011;44680;48.342;7.856;2022-12-10T03:09:21;39.33;;;22.85;;
58898;SDS011;44680;48.342;7.856;2022-12-10T03:11:49;43.87;;;23.13;;
58898;SDS011;44680;48.342;7.856;2022-12-10T03:14:27;38.88;;;22.30;;
58898;SDS011;44680;48.342;7.856;2022-12-10T03:16:55;42.53;;;21.30;;
58898;SDS011;44680;48.342;7.856;2022-12-10T03:19:23;40.22;;;21.67;;
58898;SDS011;44680;48.342;7.856;2022-12-10T03:21:51;40.65;;;22.17;;
58898;SDS011;44680;48.342;7.856;2022-12-10T03:24:17;40.33;;;22.83;;
58898;SDS011;44680;48.342;7.856;2022-12-10T03:26:43;41.83;;;22.02;;
58898;SDS011;44680;48.342;7.856;2022-12-10T03:29:13;41.45;;;23.30;;
58898;SDS011;44680;48.342;7.856;2022-12-10T03:31:40;42.20;;;22.05;;
58898;SDS011;44680;48.342;7.856;2022-12-10T03:34:06;40.88;;;22.55;;
58898;SDS011;44680;48.342;7.856;2022-12-10T03:36:33;40.10;;;22.30;;
58898;SDS011;44680;48.342;7.856;2022-12-10T03:38:58;41.67;;;22.20;;
58898;SDS011;44680;48.342;7.856;2022-12-10T03:41:24;40.38;;;22.15;;
58898;SDS011;44680;48.342;7.856;2022-12-10T03:43:54;38.10;;;21.13;;
58898;SDS011;44680;48.342;7.856;2022-12-10T03:46:20;40.38;;;21.83;;
58898;SDS011;44680;48.342;7.856;2022-12-10T03:48:46;40.00;;;21.25;;
58898;SDS011;44680;48.342;7.856;2022-12-10T03:51:11;38.75;;;20.60;;
58898;SDS011;44680;48.342;7.856;2022-12-10T03:53:36;38.42;;;21.05;;
58898;SDS011;44680;48.342;7.856;2022-12-10T03:56:02;43.78;;;21.80;;
58898;SDS011;44680;48.342;7.856;2022-12-10T03:58:27;39.33;;;21.25;;
58898;SDS011;44680;48.342;7.856;2022-12-10T04:00:52;43.15;;;21.98;;
58898;SDS011;44680;48.342;7.856;2022-12-10T04:03:18;39.28;;;21.65;;
58898;SDS011;44680;48.342;7.856;2022-12-10T04:05:43;43.15;;;22.08;;
58898;SDS011;44680;48.342;7.856;2022-12-10T04:08:08;43.83;;;21.90;;
58898;SDS011;44680;48.342;7.856;2022-12-10T04:10:37;39.22;;;21.45;;
58898;SDS011;44680;48.342;7.856;2022-12-10T04:13:03;39.08;;;20.85;;
58898;SDS011;44680;48.342;7.856;2022-12-10T04:15:47;36.83;;;20.38;;
58898;SDS011;44680;48.342;7.856;2022-12-10T04:18:31;42.42;;;21.00;;
58898;SDS011;44680;48.342;7.856;2022-12-10T04:20:56;37.05;;;20.30;;
58898;SDS011;44680;48.342;7.856;2022-12-10T04:23:40;45.87;;;21.13;;
58898;SDS011;44680;48.342;7.856;2022-12-10T04:26:24;37.00;;;19.52;;
58898;SDS011;44680;48.342;7.856;2022-12-10T04:29:08;43.85;;;21.45;;
58898;SDS011;44680;48.342;7.856;2022-12-10T04:31:33;39.92;;;21.52;;
58898;SDS011;44680;48.342;7.856;2022-12-10T04:33:59;36.90;;;20.25;;
58898;SDS011;44680;48.342;7.856;2022-12-10T04:36:24;40.90;;;21.55;;
58898;SDS011;44680;48.342;7.856;2022-12-10T04:38:49;40.97;;;21.27;;
58898;SDS011;44680;48.342;7.856;2022-12-10T04:41:15;37.55;;;21.48;;
58898;SDS011;44680;48.342;7.856;2022-12-10T04:43:41;40.75;;;21.67;;
58898;SDS011;44680;48.342;7.856;2022-12-10T04:46:08;40.40;;;22.35;;
58898;SDS011;44680;48.342;7.856;2022-12-10T04:48:33;42.63;;;21.48;;
58898;SDS011;44680;48.342;7.856;2022-12-10T04:50:59;41.00;;;20.30;;
58898;SDS011;44680;48.342;7.856;2022-12-10T04:53:24;38.58;;;21.60;;
58898;SDS011;44680;48.342;7.856;2022-12-10T04:55:49;43.55;;;21.77;;
58898;SDS011;44680;48.342;7.856;2022-12-10T04:58:15;42.90;;;21.67;;
58898;SDS011;44680;48.342;7.856;2022-12-10T05:00:40;37.60;;;20.85;;
58898;SDS011;44680;48.342;7.856;2022-12-10T05:03:05;43.58;;;22.70;;
58898;SDS011;44680;48.342;7.856;2022-12-10T05:05:31;41.42;;;21.75;;
58898;SDS011;44680;48.342;7.856;2022-12-10T05:07:58;41.10;;;21.85;;
58898;SDS011;44680;48.342;7.856;2022-12-10T05:10:24;42.00;;;20.30;;
58898;SDS011;44680;48.342;7.856;2022-12-10T05:12:49;45.17;;;23.13;;
58898;SDS011;44680;48.342;7.856;2022-12-10T05:15:15;38.95;;;20.75;;
58898;SDS011;44680;48.342;7.856;2022-12-10T05:17:40;42.85;;;21.85;;
58898;SDS011;44680;48.342;7.856;2022-12-10T05:20:06;42.50;;;20.85;;
58898;SDS011;44680;48.342;7.856;2022-12-10T05:22:31;37.45;;;20.92;;
58898;SDS011;44680;48.342;7.856;2022-12-10T05:25:15;38.97;;;19.83;;
58898;SDS011;44680;48.342;7.856;2022-12-10T05:27:40;47.25;;;21.30;;
58898;SDS011;44680;48.342;7.856;2022-12-10T05:30:06;43.40;;;20.83;;
58898;SDS011;44680;48.342;7.856;2022-12-10T05:32:33;43.83;;;22.23;;
58898;SDS011;44680;48.342;7.856;2022-12-10T05:34:58;41.28;;;22.05;;
58898;SDS011;44680;48.342;7.856;2022-12-10T05:37:23;41.53;;;21.00;;
58898;SDS011;44680;48.342;7.856;2022-12-10T05:39:49;44.90;;;21.35;;
58898;SDS011;44680;48.342;7.856;2022-12-10T05:42:14;43.35;;;21.65;;
58898;SDS011;44680;48.342;7.856;2022-12-10T05:44:39;41.67;;;22.35;;
58898;SDS011;44680;48.342;7.856;2022-12-10T05:47:05;43.63;;;22.00;;
58898;SDS011;44680;48.342;7.856;2022-12-10T05:49:30;42.85;;;21.88;;
58898;SDS011;44680;48.342;7.856;2022-12-10T05:51:55;46.22;;;22.67;;
58898;SDS011;44680;48.342;7.856;2022-12-10T05:54:21;44.72;;;22.65;;
58898;SDS011;44680;48.342;7.856;2022-12-10T05:56:46;44.20;;;21.83;;
58898;SDS011;44680;48.342;7.856;2022-12-10T05:59:12;47.25;;;21.02;;
58898;SDS011;44680;48.342;7.856;2022-12-10T06:01:37;41.45;;;20.90;;
58898;SDS011;44680;48.342;7.856;2022-12-10T06:04:03;42.33;;;20.75;;
58898;SDS011;44680;48.342;7.856;2022-12-10T06:06:30;41.53;;;20.95;;
58898;SDS011;44680;48.342;7.856;2022-12-10T06:08:58;41.15;;;20.83;;
58898;SDS011;44680;48.342;7.856;2022-12-10T06:11:24;41.67;;;20.83;;
58898;SDS011;44680;48.342;7.856;2022-12-10T06:13:51;42.70;;;20.30;;
58898;SDS011;44680;48.342;7.856;2022-12-10T06:16:16;39.40;;;19.48;;
58898;SDS011;44680;48.342;7.856;2022-12-10T06:18:42;40.55;;;20.15;;
58898;SDS011;44680;48.342;7.856;2022-12-10T06:21:10;43.58;;;20.80;;
58898;SDS011;44680;48.342;7.856;2022-12-10T06:23:38;42.92;;;20.17;;
58898;SDS011;44680;48.342;7.856;2022-12-10T06:26:11;41.80;;;21.95;;
58898;SDS011;44680;48.342;7.856;2022-12-10T06:28:38;44.20;;;23.17;;
58898;SDS011;44680;48.342;7.856;2022-12-10T06:31:04;41.63;;;21.55;;
58898;SDS011;44680;48.342;7.856;2022-12-10T06:33:29;42.95;;;21.45;;
58898;SDS011;44680;48.342;7.856;2022-12-10T06:35:55;44.90;;;21.25;;
58898;SDS011;44680;48.342;7.856;2022-12-10T06:38:20;47.47;;;23.45;;
58898;SDS011;44680;48.342;7.856;2022-12-10T06:40:45;47.33;;;24.83;;
58898;SDS011;44680;48.342;7.856;2022-12-10T06:43:11;48.42;;;23.02;;
58898;SDS011;44680;48.342;7.856;2022-12-10T06:45:39;45.20;;;24.23;;
58898;SDS011;44680;48.342;7.856;2022-12-10T06:48:05;46.92;;;25.75;;
58898;SDS011;44680;48.342;7.856;2022-12-10T06:50:30;50.20;;;25.98;;
58898;SDS011;44680;48.342;7.856;2022-12-10T06:52:56;47.35;;;24.48;;
58898;SDS011;44680;48.342;7.856;2022-12-10T06:55:21;47.95;;;23.75;;
58898;SDS011;44680;48.342;7.856;2022-12-10T06:57:46;45.17;;;22.33;;
58898;SDS011;44680;48.342;7.856;2022-12-10T07:00:12;45.55;;;22.40;;
58898;SDS011;44680;48.342;7.856;2022-12-10T07:02:38;41.13;;;21.13;;
58898;SDS011;44680;48.342;7.856;2022-12-10T07:05:03;45.92;;;21.75;;
58898;SDS011;44680;48.342;7.856;2022-12-10T07:07:29;44.15;;;22.08;;
58898;SDS011;44680;48.342;7.856;2022-12-10T07:09:54;44.90;;;21.80;;
58898;SDS011;44680;48.342;7.856;2022-12-10T07:12:19;46.17;;;22.27;;
58898;SDS011;44680;48.342;7.856;2022-12-10T07:14:44;47.80;;;22.83;;
58898;SDS011;44680;48.342;7.856;2022-12-10T07:17:10;48.80;;;23.23;;
58898;SDS011;44680;48.342;7.856;2022-12-10T07:19:35;45.30;;;22.73;;
58898;SDS011;44680;48.342;7.856;2022-12-10T07:22:01;42.35;;;21.30;;
58898;SDS011;44680;48.342;7.856;2022-12-10T07:24:26;47.05;;;23.10;;
58898;SDS011;44680;48.342;7.856;2022-12-10T07:26:51;45.40;;;22.60;;
58898;SDS011;44680;48.342;7.856;2022-12-10T07:29:18;44.92;;;22.83;;
58898;SDS011;44680;48.342;7.856;2022-12-10T07:31:45;50.10;;;24.65;;
58898;SDS011;44680;48.342;7.856;2022-12-10T07:34:11;43.38;;;21.77;;
58898;SDS011;44680;48.342;7.856;2022-12-10T07:36:37;45.35;;;22.67;;
58898;SDS011;44680;48.342;7.856;2022-12-10T07:39:04;47.55;;;22.98;;
58898;SDS011;44680;48.342;7.856;2022-12-10T07:41:30;44.42;;;21.52;;
58898;SDS011;44680;48.342;7.856;2022-12-10T07:43:56;46.42;;;24.00;;
58898;SDS011;44680;48.342;7.856;2022-12-10T07:46:22;42.55;;;21.42;;
58898;SDS011;44680;48.342;7.856;2022-12-10T07:48:49;49.42;;;25.90;;
58898;SDS011;44680;48.342;7.856;2022-12-10T07:51:15;47.17;;;22.90;;
58898;SDS011;44680;48.342;7.856;2022-12-10T07:53:42;43.65;;;21.50;;
58898;SDS011;44680;48.342;7.856;2022-12-10T07:56:08;47.83;;;22.67;;
58898;SDS011;44680;48.342;7.856;2022-12-10T07:58:33;49.22;;;23.00;;
58898;SDS011;44680;48.342;7.856;2022-12-10T08:00:58;47.17;;;23.98;;
58898;SDS011;44680;48.342;7.856;2022-12-10T08:03:24;48.15;;;24.08;;
58898;SDS011;44680;48.342;7.856;2022-12-10T08:06:02;46.00;;;23.33;;
58898;SDS011;44680;48.342;7.856;2022-12-10T08:08:29;46.03;;;22.42;;
58898;SDS011;44680;48.342;7.856;2022-12-10T08:11:01;46.20;;;23.05;;
58898;SDS011;44680;48.342;7.856;2022-12-10T08:13:28;46.97;;;21.63;;
58898;SDS011;44680;48.342;7.856;2022-12-10T08:15:53;46.47;;;22.67;;
58898;SDS011;44680;48.342;7.856;2022-12-10T08:18:19;46.38;;;24.05;;
58898;SDS011;44680;48.342;7.856;2022-12-10T08:20:45;48.60;;;22.67;;
58898;SDS011;44680;48.342;7.856;2022-12-10T08:23:10;48.55;;;23.10;;
58898;SDS011;44680;48.342;7.856;2022-12-10T08:25:36;46.70;;;22.40;;
58898;SDS011;44680;48.342;7.856;2022-12-10T08:28:02;47.33;;;22.65;;
58898;SDS011;44680;48.342;7.856;2022-12-10T08:30:28;46.42;;;21.60;;
58898;SDS011;44680;48.342;7.856;2022-12-10T08:32:54;47.92;;;22.95;;
58898;SDS011;44680;48.342;7.856;2022-12-10T08:35:19;47.95;;;24.02;;
58898;SDS011;44680;48.342;7.856;2022-12-10T08:37:44;42.17;;;21.27;;
58898;SDS011;44680;48.342;7.856;2022-12-10T08:40:10;47.20;;;23.35;;
58898;SDS011;44680;48.342;7.856;2022-12-10T08:42:35;48.53;;;24.05;;
58898;SDS011;44680;48.342;7.856;2022-12-10T08:45:01;47.55;;;22.65;;
58898;SDS011;44680;48.342;7.856;2022-12-10T08:47:27;45.22;;;22.85;;
58898;SDS011;44680;48.342;7.856;2022-12-10T08:49:52;47.58;;;22.48;;
58898;SDS011;44680;48.342;7.856;2022-12-10T08:52:17;51.50;;;25.25;;
58898;SDS011;44680;48.342;7.856;2022-12-10T08:54:43;49.33;;;23.77;;
58898;SDS011;44680;48.342;7.856;2022-12-10T08:57:08;49.88;;;23.35;;
58898;SDS011;44680;48.342;7.856;2022-12-10T08:59:33;49.72;;;23.58;;
58898;SDS011;44680;48.342;7.856;2022-12-10T09:01:59;48.17;;;23.85;;
58898;SDS011;44680;48.342;7.856;2022-12-10T09:04:24;49.42;;;24.75;;
58898;SDS011;44680;48.342;7.856;2022-12-10T09:06:49;51.95;;;24.58;;
58898;SDS011;44680;48.342;7.856;2022-12-10T09:09:15;47.78;;;24.75;;
58898;SDS011;44680;48.342;7.856;2022-12-10T09:11:44;49.65;;;23.80;;
58898;SDS011;44680;48.342;7.856;2022-12-10T09:14:14;53.25;;;24.02;;
58898;SDS011;44680;48.342;7.856;2022-12-10T09:16:39;55.00;;;26.60;;
58898;SDS011;44680;48.342;7.856;2022-12-10T09:19:05;49.78;;;25.48;;
58898;SDS011;44680;48.342;7.856;2022-12-10T09:21:31;47.15;;;22.80;;
58898;SDS011;44680;48.342;7.856;2022-12-10T09:23:57;45.53;;;22.98;;
58898;SDS011;44680;48.342;7.856;2022-12-10T09:26:23;48.80;;;22.65;;
58898;SDS011;44680;48.342;7.856;2022-12-10T09:28:48;45.85;;;23.98;;
58898;SDS011;44680;48.342;7.856;2022-12-10T09:31:15;45.60;;;22.85;;
58898;SDS011;44680;48.342;7.856;2022-12-10T09:33:41;47.10;;;23.80;;
58898;SDS011;44680;48.342;7.856;2022-12-10T09:36:07;49.45;;;23.25;;
58898;SDS011;44680;48.342;7.856;2022-12-10T09:38:34;49.05;;;22.73;;
58898;SDS011;44680;48.342;7.856;2022-12-10T09:41:01;48.88;;;23.33;;
58898;SDS011;44680;48.342;7.856;2022-12-10T09:46:05;49.28;;;23.67;;
58898;SDS011;44680;48.342;7.856;2022-12-10T09:51:48;46.28;;;22.20;;
58898;SDS011;44680;48.342;7.856;2022-12-10T09:54:19;45.75;;;23.08;;
58898;SDS011;44680;48.342;7.856;2022-12-10T09:56:50;47.08;;;22.55;;
58898;SDS011;44680;48.342;7.856;2022-12-10T09:59:36;48.30;;;22.55;;
58898;SDS011;44680;48.342;7.856;2022-12-10T10:04:52;51.13;;;23.58;;
58898;SDS011;44680;48.342;7.856;2022-12-10T10:07:29;46.72;;;23.38;;
58898;SDS011;44680;48.342;7.856;2022-12-10T10:10:03;51.65;;;24.55;;
58898;SDS011;44680;48.342;7.856;2022-12-10T10:12:31;49.75;;;24.17;;
58898;SDS011;44680;48.342;7.856;2022-12-10T10:14:58;48.38;;;24.08;;
58898;SDS011;44680;48.342;7.856;2022-12-10T10:17:36;48.38;;;23.00;;
58898;SDS011;44680;48.342;7.856;2022-12-10T10:20:02;48.42;;;22.38;;
58898;SDS011;44680;48.342;7.856;2022-12-10T10:22:28;52.45;;;22.88;;
58898;SDS011;44680;48.342;7.856;2022-12-10T10:24:55;45.72;;;21.00;;
58898;SDS011;44680;48.342;7.856;2022-12-10T10:27:24;50.13;;;22.42;;
58898;SDS011;44680;48.342;7.856;2022-12-10T10:29:52;48.28;;;22.65;;
58898;SDS011;44680;48.342;7.856;2022-12-10T10:32:19;50.20;;;23.70;;
58898;SDS011;44680;48.342;7.856;2022-12-10T10:34:45;47.67;;;22.75;;
58898;SDS011;44680;48.342;7.856;2022-12-10T10:37:22;46.40;;;23.40;;
58898;SDS011;44680;48.342;7.856;2022-12-10T10:39:50;49.17;;;22.92;;
58898;SDS011;44680;48.342;7.856;2022-12-10T10:42:27;46.28;;;23.02;;
58898;SDS011;44680;48.342;7.856;2022-12-10T10:44:58;48.33;;;22.52;;
58898;SDS011;44680;48.342;7.856;2022-12-10T10:47:25;45.55;;;21.50;;
58898;SDS011;44680;48.342;7.856;2022-12-10T10:49:54;51.33;;;23.63;;
58898;SDS011;44680;48.342;7.856;2022-12-10T10:52:20;46.25;;;22.63;;
58898;SDS011;44680;48.342;7.856;2022-12-10T10:54:46;45.75;;;22.85;;
58898;SDS011;44680;48.342;7.856;2022-12-10T10:59:44;50.78;;;25.50;;
58898;SDS011;44680;48.342;7.856;2022-12-10T11:05:08;51.85;;;25.48;;
58898;SDS011;44680;48.342;7.856;2022-12-10T11:07:49;51.90;;;24.58;;
58898;SDS011;44680;48.342;7.856;2022-12-10T11:10:23;50.15;;;24.30;;
58898;SDS011;44680;48.342;7.856;2022-12-10T11:12:56;46.97;;;23.40;;
58898;SDS011;44680;48.342;7.856;2022-12-10T11:15:38;49.53;;;23.17;;
58898;SDS011;44680;48.342;7.856;2022-12-10T11:21:05;49.28;;;24.27;;
58898;SDS011;44680;48.342;7.856;2022-12-10T11:23:38;54.40;;;26.80;;
58898;SDS011;44680;48.342;7.856;2022-12-10T11:26:21;47.85;;;23.50;;
58898;SDS011;44680;48.342;7.856;2022-12-10T11:32:05;46.15;;;23.83;;
58898;SDS011;44680;48.342;7.856;2022-12-10T11:52:05;60.47;;;28.95;;
58898;SDS011;44680;48.342;7.856;2022-12-10T11:54:25;63.28;;;29.67;;
58898;SDS011;44680;48.342;7.856;2022-12-10T11:57:06;56.80;;;26.80;;
58898;SDS011;44680;48.342;7.856;2022-12-10T12:07:45;44.20;;;21.95;;
58898;SDS011;44680;48.342;7.856;2022-12-10T12:10:35;46.17;;;21.83;;
58898;SDS011;44680;48.342;7.856;2022-12-10T12:13:24;42.95;;;20.70;;
58898;SDS011;44680;48.342;7.856;2022-12-10T12:15:54;48.83;;;24.00;;
58898;SDS011;44680;48.342;7.856;2022-12-10T12:21:02;46.80;;;22.97;;
58898;SDS011;44680;48.342;7.856;2022-12-10T12:26:32;43.15;;;21.85;;
58898;SDS011;44680;48.342;7.856;2022-12-10T12:35:06;46.08;;;21.70;;
58898;SDS011;44680;48.342;7.856;2022-12-10T12:37:45;43.25;;;22.40;;
58898;SDS011;44680;48.342;7.856;2022-12-10T12:43:01;43.80;;;23.13;;
58898;SDS011;44680;48.342;7.856;2022-12-10T12:48:14;44.65;;;21.88;;
58898;SDS011;44680;48.342;7.856;2022-12-10T12:53:15;44.95;;;23.75;;
58898;SDS011;44680;48.342;7.856;2022-12-10T13:01:31;42.55;;;20.63;;
58898;SDS011;44680;48.342;7.856;2022-12-10T13:03:58;41.58;;;21.15;;
58898;SDS011;44680;48.342;7.856;2022-12-10T13:06:25;40.60;;;20.75;;
58898;SDS011;44680;48.342;7.856;2022-12-10T13:11:39;42.20;;;20.80;;
58898;SDS011;44680;48.342;7.856;2022-12-10T13:27:17;39.28;;;19.92;;
58898;SDS011;44680;48.342;7.856;2022-12-10T13:29:57;39.83;;;19.02;;
58898;SDS011;44680;48.342;7.856;2022-12-10T13:37:32;41.90;;;19.75;;
58898;SDS011;44680;48.342;7.856;2022-12-10T13:42:36;40.30;;;19.70;;
58898;SDS011;44680;48.342;7.856;2022-12-10T13:47:47;38.53;;;19.70;;
58898;SDS011;44680;48.342;7.856;2022-12-10T13:50:29;41.78;;;19.05;;
58898;SDS011;44680;48.342;7.856;2022-12-10T13:53:03;40.50;;;19.90;;
58898;SDS011;44680;48.342;7.856;2022-12-10T14:01:12;39.53;;;21.35;;
58898;SDS011;44680;48.342;7.856;2022-12-10T14:03:48;36.90;;;19.20;;
58898;SDS011;44680;48.342;7.856;2022-12-10T14:06:19;42.28;;;21.67;;
58898;SDS011;44680;48.342;7.856;2022-12-10T14:08:57;42.20;;;21.08;;
58898;SDS011;44680;48.342;7.856;2022-12-10T14:11:27;40.03;;;20.05;;
58898;SDS011;44680;48.342;7.856;2022-12-10T14:13:56;39.30;;;19.63;;
58898;SDS011;44680;48.342;7.856;2022-12-10T14:16:23;39.95;;;20.27;;
58898;SDS011;44680;48.342;7.856;2022-12-10T14:18:52;41.05;;;19.40;;
58898;SDS011;44680;48.342;7.856;2022-12-10T14:21:20;49.65;;;25.02;;
58898;SDS011;44680;48.342;7.856;2022-12-10T14:23:47;46.53;;;23.88;;
58898;SDS011;44680;48.342;7.856;2022-12-10T14:28:45;40.80;;;21.55;;
58898;SDS011;44680;48.342;7.856;2022-12-10T14:31:21;39.60;;;21.25;;
58898;SDS011;44680;48.342;7.856;2022-12-10T14:33:52;41.67;;;20.45;;
58898;SDS011;44680;48.342;7.856;2022-12-10T14:36:54;39.10;;;19.83;;
58898;SDS011;44680;48.342;7.856;2022-12-10T14:41:53;42.47;;;20.73;;
58898;SDS011;44680;48.342;7.856;2022-12-10T14:44:21;41.20;;;20.30;;
58898;SDS011;44680;48.342;7.856;2022-12-10T14:46:47;43.40;;;21.52;;
58898;SDS011;44680;48.342;7.856;2022-12-10T14:49:17;40.95;;;21.25;;
58898;SDS011;44680;48.342;7.856;2022-12-10T14:51:45;37.78;;;20.63;;
58898;SDS011;44680;48.342;7.856;2022-12-10T14:54:30;37.97;;;20.30;;
58898;SDS011;44680;48.342;7.856;2022-12-10T14:56:58;39.00;;;19.58;;
58898;SDS011;44680;48.342;7.856;2022-12-10T14:59:30;38.33;;;20.30;;
58898;SDS011;44680;48.342;7.856;2022-12-10T15:02:24;37.95;;;20.10;;
58898;SDS011;44680;48.342;7.856;2022-12-10T15:04:52;40.65;;;19.20;;
58898;SDS011;44680;48.342;7.856;2022-12-10T15:07:20;37.88;;;19.83;;
58898;SDS011;44680;48.342;7.856;2022-12-10T15:09:48;36.33;;;18.20;;
58898;SDS011;44680;48.342;7.856;2022-12-10T15:12:27;37.03;;;19.05;;
58898;SDS011;44680;48.342;7.856;2022-12-10T15:14:53;38.50;;;19.25;;
58898;SDS011;44680;48.342;7.856;2022-12-10T15:17:36;41.05;;;20.02;;
58898;SDS011;44680;48.342;7.856;2022-12-10T15:20:09;39.42;;;19.60;;
58898;SDS011;44680;48.342;7.856;2022-12-10T15:22:42;40.90;;;22.17;;
58898;SDS011;44680;48.342;7.856;2022-12-10T15:25:17;49.05;;;25.40;;
58898;SDS011;44680;48.342;7.856;2022-12-10T15:27:55;40.83;;;22.08;;
58898;SDS011;44680;48.342;7.856;2022-12-10T15:30:43;40.88;;;20.67;;
58898;SDS011;44680;48.342;7.856;2022-12-10T15:33:19;42.05;;;20.75;;
58898;SDS011;44680;48.342;7.856;2022-12-10T15:35:57;45.40;;;21.55;;
58898;SDS011;44680;48.342;7.856;2022-12-10T15:38:23;39.97;;;19.90;;
58898;SDS011;44680;48.342;7.856;2022-12-10T15:40:49;38.05;;;19.85;;
58898;SDS011;44680;48.342;7.856;2022-12-10T15:43:25;42.42;;;21.23;;
58898;SDS011;44680;48.342;7.856;2022-12-10T15:45:54;39.47;;;20.33;;
58898;SDS011;44680;48.342;7.856;2022-12-10T15:48:19;39.97;;;20.42;;
58898;SDS011;44680;48.342;7.856;2022-12-10T15:50:45;40.83;;;21.25;;
58898;SDS011;44680;48.342;7.856;2022-12-10T15:53:11;39.47;;;20.13;;
58898;SDS011;44680;48.342;7.856;2022-12-10T15:55:37;41.60;;;22.05;;
58898;SDS011;44680;48.342;7.856;2022-12-10T15:58:05;43.67;;;21.05;;
58898;SDS011;44680;48.342;7.856;2022-12-10T16:00:35;39.40;;;21.17;;
58898;SDS011;44680;48.342;7.856;2022-12-10T16:03:01;40.67;;;21.52;;
58898;SDS011;44680;48.342;7.856;2022-12-10T16:05:29;39.97;;;20.88;;
58898;SDS011;44680;48.342;7.856;2022-12-10T16:07:59;41.92;;;21.85;;
58898;SDS011;44680;48.342;7.856;2022-12-10T16:10:41;39.33;;;20.70;;
58898;SDS011;44680;48.342;7.856;2022-12-10T16:13:09;41.88;;;21.25;;
58898;SDS011;44680;48.342;7.856;2022-12-10T16:15:57;42.40;;;21.40;;
58898;SDS011;44680;48.342;7.856;2022-12-10T16:18:25;44.17;;;22.10;;
58898;SDS011;44680;48.342;7.856;2022-12-10T16:20:52;45.78;;;22.15;;
58898;SDS011;44680;48.342;7.856;2022-12-10T16:23:17;47.05;;;22.42;;
58898;SDS011;44680;48.342;7.856;2022-12-10T16:25:43;45.78;;;23.08;;
58898;SDS011;44680;48.342;7.856;2022-12-10T16:28:13;41.65;;;22.08;;
58898;SDS011;44680;48.342;7.856;2022-12-10T16:30:42;43.58;;;23.58;;
58898;SDS011;44680;48.342;7.856;2022-12-10T16:33:18;44.05;;;22.70;;
58898;SDS011;44680;48.342;7.856;2022-12-10T16:35:44;44.63;;;23.42;;